58OK weather

Jane Phillips Heliport
Bartlesville, Oklahoma, United States

Public forecast

Using degrees Fahrenheit for public forecast. Weather courtesy of forecast.io.

Closest aviation weather report (METAR) to Jane Phillips Heliport

Closest report is Bartlesville Municipal Airport, 4.9 nm (9.0 km) WNW. Retrieved 2020/04/06 23:53 UTC (27 minutes ago):

KBVO 062353Z AUTO 18008KT 10SM OVC040 22/16 A2987 RMK AO2 SLP105 T02220156 10228 20200 55008

Closest aviation forecast (TAF) to Jane Phillips Heliport

Closest forecast is Bartlesville Municipal Airport, 4.9 nm (9.0 km) WNW. Retrieved 2020-04-07 00:39 UTC (0 seconds ago):

TAF KBVO 062337Z 0700/0724 19011G18KT P6SM BKN035 FM070100 19010KT P6SM BKN035 FM071000 19008KT P6SM SCT008 BKN015 FM071600 19011KT P6SM SCT025 BKN035 FM071900 20011KT P6SM SCT040 SCT250